createdAt,value
2022-09-24T00:01:26.817Z,14.82
2022-09-24T00:03:55.996Z,13.68
2022-09-24T00:06:24.049Z,13.60
2022-09-24T00:08:52.268Z,12.55
2022-09-24T00:11:21.522Z,11.35
2022-09-24T00:13:49.510Z,10.77
2022-09-24T00:16:17.931Z,12.50
2022-09-24T00:18:45.155Z,11.95
2022-09-24T00:21:16.667Z,13.65
2022-09-24T00:23:44.146Z,12.18
2022-09-24T00:26:31.415Z,11.35
2022-09-24T00:28:58.816Z,11.35
2022-09-24T00:31:26.588Z,12.82
2022-09-24T00:33:54.297Z,12.13
2022-09-24T00:36:22.278Z,13.30
2022-09-24T00:38:51.199Z,12.70
2022-09-24T00:41:20.265Z,12.98
2022-09-24T00:43:48.327Z,12.27
2022-09-24T00:46:18.547Z,11.60
2022-09-24T00:48:47.108Z,11.10
2022-09-24T00:51:16.898Z,11.13
2022-09-24T00:53:44.719Z,11.88
2022-09-24T00:56:15.530Z,10.77
2022-09-24T00:58:45.020Z,11.43
2022-09-24T01:01:12.478Z,11.27
2022-09-24T01:03:41.131Z,11.13
2022-09-24T01:06:09.092Z,11.85
2022-09-24T01:08:36.454Z,11.65
2022-09-24T01:11:03.620Z,12.40
2022-09-24T01:13:49.532Z,14.55
2022-09-24T01:16:33.181Z,13.50
2022-09-24T01:19:09.261Z,13.50
2022-09-24T01:21:45.762Z,14.10
2022-09-24T01:24:29.566Z,14.23
2022-09-24T01:27:04.971Z,13.48
2022-09-24T01:29:43.393Z,13.80
2022-09-24T01:32:18.363Z,13.30
2022-09-24T01:34:48.377Z,13.63
2022-09-24T01:37:16.995Z,14.00
2022-09-24T01:39:46.096Z,14.50
2022-09-24T01:42:14.127Z,15.45
2022-09-24T01:44:44.290Z,17.05
2022-09-24T01:47:15.105Z,14.23
2022-09-24T01:49:42.569Z,15.18
2022-09-24T01:52:13.647Z,14.02
2022-09-24T01:54:50.761Z,14.13
2022-09-24T01:57:24.104Z,16.17
2022-09-24T01:59:51.191Z,14.88
2022-09-24T02:02:37.371Z,15.23
2022-09-24T02:05:14.699Z,15.18
2022-09-24T02:08:05.275Z,15.70
2022-09-24T02:10:35.365Z,15.05
2022-09-24T02:13:04.589Z,13.98
2022-09-24T02:15:37.639Z,16.02
2022-09-24T02:18:07.544Z,15.52
2022-09-24T02:20:36.256Z,16.42
2022-09-24T02:23:04.850Z,16.92
2022-09-24T02:25:34.800Z,15.45
2022-09-24T02:28:03.191Z,15.50
2022-09-24T02:30:34.813Z,17.45
2022-09-24T02:33:02.080Z,15.30
2022-09-24T02:35:29.265Z,14.77
2022-09-24T02:37:56.388Z,16.70
2022-09-24T02:40:23.700Z,14.60
2022-09-24T02:42:50.853Z,15.63
2022-09-24T02:45:17.977Z,16.23
2022-09-24T02:47:45.070Z,16.45
2022-09-24T02:50:12.210Z,15.88
2022-09-24T02:52:39.355Z,16.15
2022-09-24T02:55:06.646Z,15.30
2022-09-24T02:57:34.467Z,17.08
2022-09-24T03:00:01.972Z,16.15
2022-09-24T03:02:29.165Z,14.80
2022-09-24T03:04:56.506Z,13.43
2022-09-24T03:07:23.652Z,13.95
2022-09-24T03:09:50.742Z,13.43
2022-09-24T03:12:17.895Z,13.48
2022-09-24T03:14:45.025Z,14.30
2022-09-24T03:17:12.169Z,13.82
2022-09-24T03:19:39.474Z,14.35
2022-09-24T03:22:06.665Z,14.13
2022-09-24T03:24:33.824Z,13.95
2022-09-24T03:27:00.959Z,13.90
2022-09-24T03:29:46.685Z,14.45
2022-09-24T03:32:13.820Z,14.85
2022-09-24T03:34:40.947Z,14.65
2022-09-24T03:37:08.666Z,15.15
2022-09-24T03:39:35.787Z,13.80
2022-09-24T03:42:02.911Z,16.75
2022-09-24T03:44:30.102Z,15.77
2022-09-24T03:46:57.292Z,14.02
2022-09-24T03:49:25.788Z,14.70
2022-09-24T03:51:52.897Z,17.00
2022-09-24T03:54:20.105Z,16.70
2022-09-24T03:56:47.231Z,15.25
2022-09-24T03:59:14.353Z,16.17
2022-09-24T04:01:41.488Z,16.42
2022-09-24T04:04:08.755Z,16.80
2022-09-24T04:06:35.890Z,15.15
2022-09-24T04:09:03.035Z,14.45
2022-09-24T04:11:30.278Z,15.27
2022-09-24T04:13:57.449Z,14.02
2022-09-24T04:16:24.624Z,14.10
2022-09-24T04:18:51.819Z,14.10
2022-09-24T04:21:19.015Z,13.77
2022-09-24T04:23:46.204Z,12.68
2022-09-24T04:26:13.329Z,14.25
2022-09-24T04:28:40.486Z,12.18
2022-09-24T04:31:07.695Z,12.73
2022-09-24T04:33:34.935Z,12.05
2022-09-24T04:36:02.157Z,12.35
2022-09-24T04:38:29.331Z,12.73
2022-09-24T04:41:04.880Z,13.15
2022-09-24T04:43:33.144Z,12.60
2022-09-24T04:46:01.974Z,12.98
2022-09-24T04:48:29.825Z,13.20
2022-09-24T04:50:57.537Z,13.32
2022-09-24T04:53:25.357Z,13.18
2022-09-24T04:55:52.492Z,13.57
2022-09-24T04:58:19.687Z,12.52
2022-09-24T05:00:47.643Z,13.35
2022-09-24T05:03:15.396Z,12.35
2022-09-24T05:05:42.660Z,12.43
2022-09-24T05:08:10.028Z,11.43
2022-09-24T05:10:37.152Z,12.00
2022-09-24T05:13:04.355Z,10.55
2022-09-24T05:15:31.574Z,12.30
2022-09-24T05:17:59.202Z,11.48
2022-09-24T05:20:26.680Z,11.93
2022-09-24T05:22:53.969Z,11.88
2022-09-24T05:25:23.082Z,11.45
2022-09-24T05:27:51.188Z,11.93
2022-09-24T05:30:19.174Z,11.73
2022-09-24T05:32:49.406Z,15.55
2022-09-24T05:35:16.584Z,18.23
2022-09-24T05:37:44.066Z,17.42
2022-09-24T05:40:29.962Z,15.82
2022-09-24T05:43:01.395Z,11.10
2022-09-24T05:45:29.134Z,10.32
2022-09-24T05:47:56.289Z,11.57
2022-09-24T05:50:23.562Z,10.48
2022-09-24T05:52:50.785Z,10.20
2022-09-24T05:55:18.008Z,10.52
2022-09-24T05:57:45.241Z,10.05
2022-09-24T06:00:12.596Z,11.18
2022-09-24T06:02:40.156Z,11.50
2022-09-24T06:05:07.579Z,12.57
2022-09-24T06:07:34.808Z,12.65
2022-09-24T06:10:02.044Z,14.95
2022-09-24T06:12:29.157Z,13.80
2022-09-24T06:14:56.264Z,12.77
2022-09-24T06:17:23.687Z,13.15
2022-09-24T06:19:50.866Z,12.55
2022-09-24T06:22:18.020Z,11.95
2022-09-24T06:24:45.901Z,9.40
2022-09-24T06:27:13.072Z,9.25
2022-09-24T06:29:40.275Z,8.90
2022-09-24T06:32:08.181Z,10.55
2022-09-24T06:34:35.444Z,10.68
2022-09-24T06:37:02.551Z,9.63
2022-09-24T06:39:29.677Z,9.10
2022-09-24T06:41:57.960Z,8.05
2022-09-24T06:44:26.072Z,8.35
2022-09-24T06:46:53.291Z,8.18
2022-09-24T06:49:20.455Z,8.77
2022-09-24T06:51:47.562Z,8.82
2022-09-24T06:54:14.749Z,8.75
2022-09-24T06:56:41.884Z,8.52
2022-09-24T06:59:09.438Z,9.88
2022-09-24T07:01:36.770Z,11.00
2022-09-24T07:04:04.255Z,11.93
2022-09-24T07:06:51.379Z,13.50
2022-09-24T07:09:18.556Z,10.77
2022-09-24T07:11:46.579Z,10.85
2022-09-24T07:14:14.061Z,10.55
2022-09-24T07:16:41.248Z,10.05
2022-09-24T07:19:08.708Z,8.98
2022-09-24T07:21:35.993Z,9.15
2022-09-24T07:24:03.246Z,8.80
2022-09-24T07:26:55.367Z,9.45
2022-09-24T07:29:22.538Z,14.47
2022-09-24T07:31:49.799Z,12.18
2022-09-24T07:34:16.968Z,15.98
2022-09-24T07:36:44.247Z,11.50
2022-09-24T07:39:11.389Z,9.07
2022-09-24T07:41:42.486Z,8.70
2022-09-24T07:44:10.262Z,8.20
2022-09-24T07:46:37.548Z,8.70
2022-09-24T07:49:04.773Z,7.63
2022-09-24T07:51:31.954Z,8.73
2022-09-24T07:53:59.316Z,7.57
2022-09-24T07:56:26.519Z,7.78
2022-09-24T07:58:53.910Z,8.95
2022-09-24T08:01:21.296Z,8.55
2022-09-24T08:03:48.596Z,9.07
2022-09-24T08:06:15.809Z,7.93
2022-09-24T08:08:43.490Z,8.50
2022-09-24T08:11:13.326Z,8.07
2022-09-24T08:13:40.515Z,9.02
2022-09-24T08:16:07.715Z,8.98
2022-09-24T08:18:35.158Z,9.45
2022-09-24T08:21:10.891Z,9.48
2022-09-24T08:23:38.487Z,9.65
2022-09-24T08:26:06.071Z,10.07
2022-09-24T08:28:33.270Z,9.40
2022-09-24T08:31:01.175Z,8.55
2022-09-24T08:33:28.771Z,9.82
2022-09-24T08:35:55.964Z,8.77
2022-09-24T08:38:23.181Z,10.27
2022-09-24T08:41:00.267Z,9.32
2022-09-24T08:43:47.922Z,9.00
2022-09-24T08:46:36.379Z,9.60
2022-09-24T08:49:04.798Z,11.15
2022-09-24T08:51:40.702Z,12.75
2022-09-24T08:54:09.517Z,11.50
2022-09-24T08:56:38.802Z,12.95
2022-09-24T08:59:23.430Z,11.07
2022-09-24T09:02:02.430Z,11.27
2022-09-24T09:04:29.685Z,10.70
2022-09-24T09:07:02.571Z,10.05
2022-09-24T09:09:41.729Z,9.45
2022-09-24T09:12:13.540Z,10.25
2022-09-24T09:14:43.753Z,9.73
2022-09-24T09:17:29.780Z,11.00
2022-09-24T09:19:58.539Z,10.98
2022-09-24T09:22:29.114Z,10.90
2022-09-24T09:25:03.498Z,10.05
2022-09-24T09:27:31.398Z,11.45
2022-09-24T09:29:59.798Z,10.05
2022-09-24T09:32:30.530Z,10.25
2022-09-24T09:35:21.245Z,10.45
2022-09-24T09:37:59.380Z,15.50
2022-09-24T09:40:38.938Z,10.95
2022-09-24T09:43:12.553Z,10.55
2022-09-24T09:45:48.948Z,10.40
2022-09-24T09:48:16.686Z,11.02
2022-09-24T09:50:51.378Z,12.35
2022-09-24T09:53:28.535Z,10.13
2022-09-24T09:55:57.455Z,10.98
2022-09-24T09:58:26.439Z,10.75
2022-09-24T10:00:54.082Z,11.70
2022-09-24T10:03:25.445Z,10.13
2022-09-24T10:08:23.822Z,8.75
2022-09-24T10:10:58.620Z,8.93
2022-09-24T10:13:26.075Z,10.30
2022-09-24T10:15:54.372Z,9.48
2022-09-24T10:18:28.325Z,8.48
2022-09-24T10:20:56.800Z,10.35
2022-09-24T10:23:27.540Z,9.27
2022-09-24T10:25:59.100Z,9.77
2022-09-24T10:28:45.883Z,9.05
2022-09-24T10:31:15.814Z,9.15
2022-09-24T10:33:47.234Z,10.20
2022-09-24T10:36:20.580Z,9.32
2022-09-24T10:38:47.714Z,9.45
2022-09-24T10:41:26.116Z,7.65
2022-09-24T10:43:57.647Z,8.50
2022-09-24T10:46:24.776Z,7.90
2022-09-24T10:48:54.954Z,8.55
2022-09-24T10:51:28.817Z,8.75
2022-09-24T10:54:14.826Z,8.40
2022-09-24T10:56:49.264Z,8.25
2022-09-24T10:59:22.452Z,7.45
2022-09-24T11:01:55.221Z,7.10
2022-09-24T11:04:41.594Z,6.50
2022-09-24T11:07:14.931Z,6.90
2022-09-24T11:09:54.936Z,6.80
2022-09-24T11:12:28.454Z,6.97
2022-09-24T11:15:14.457Z,7.13
2022-09-24T11:18:04.935Z,6.97
2022-09-24T11:20:37.383Z,7.15
2022-09-24T11:23:08.238Z,8.10
2022-09-24T11:25:42.820Z,7.13
2022-09-24T11:28:29.696Z,7.50
2022-09-24T11:31:05.946Z,6.72
2022-09-24T11:33:52.228Z,8.77
2022-09-24T11:36:42.701Z,7.10
2022-09-24T11:39:13.392Z,6.78
2022-09-24T11:41:49.742Z,7.47
2022-09-24T11:44:27.105Z,7.72
2022-09-24T11:47:01.464Z,6.68
2022-09-24T11:49:35.639Z,5.82
2022-09-24T11:52:24.109Z,6.28
2022-09-24T11:55:00.193Z,5.88
2022-09-24T11:57:35.367Z,5.65
2022-09-24T12:00:29.553Z,5.22
2022-09-24T12:03:05.933Z,5.05
2022-09-24T12:05:38.599Z,5.47
2022-09-24T12:08:17.476Z,6.03
2022-09-24T12:10:47.912Z,5.32
2022-09-24T12:13:23.998Z,5.38
2022-09-24T12:16:07.372Z,5.72
2022-09-24T12:18:34.536Z,5.47
2022-09-24T12:21:03.850Z,5.75
2022-09-24T12:23:33.616Z,5.00
2022-09-24T12:26:03.843Z,4.85
2022-09-24T12:29:14.503Z,4.95
2022-09-24T12:32:12.202Z,4.60
2022-09-24T12:34:42.445Z,5.07
2022-09-24T12:37:12.489Z,5.70
2022-09-24T12:39:45.763Z,5.13
2022-09-24T12:42:13.774Z,5.28
2022-09-24T12:44:46.859Z,4.80
2022-09-24T12:47:19.079Z,5.65
2022-09-24T12:49:49.172Z,4.72
2022-09-24T12:52:25.142Z,5.50
2022-09-24T12:54:59.061Z,4.82
2022-09-24T12:57:28.760Z,4.95
2022-09-24T12:59:57.416Z,5.28
2022-09-24T13:02:24.670Z,5.25
2022-09-24T13:05:04.370Z,5.25
2022-09-24T13:07:33.399Z,4.93
2022-09-24T13:10:12.979Z,4.63
2022-09-24T13:12:40.335Z,5.38
2022-09-24T13:15:09.330Z,5.57
2022-09-24T13:17:40.373Z,5.68
2022-09-24T13:20:09.191Z,5.55
2022-09-24T13:22:37.905Z,5.68
2022-09-24T13:25:08.422Z,5.80
2022-09-24T13:27:37.937Z,4.93
2022-09-24T13:30:25.483Z,5.55
2022-09-24T13:33:02.534Z,5.60
2022-09-24T13:35:32.620Z,5.75
2022-09-24T13:38:07.658Z,5.78
2022-09-24T13:40:44.919Z,5.40
2022-09-24T13:43:12.152Z,6.03
2022-09-24T13:45:42.459Z,5.50
2022-09-24T13:48:25.274Z,5.90
2022-09-24T13:53:25.243Z,5.22
2022-09-24T13:56:01.073Z,6.00
2022-09-24T13:58:28.297Z,5.90
2022-09-24T14:00:55.556Z,5.97
2022-09-24T14:03:24.864Z,5.47
2022-09-24T14:05:52.415Z,5.20
2022-09-24T14:08:22.087Z,5.68
2022-09-24T14:10:50.976Z,5.80
2022-09-24T14:13:26.737Z,5.90
2022-09-24T14:15:54.147Z,6.00
2022-09-24T14:18:22.169Z,5.47
2022-09-24T14:20:58.764Z,5.30
2022-09-24T14:23:28.896Z,5.05
2022-09-24T14:25:56.929Z,6.40
2022-09-24T14:28:24.517Z,5.47
2022-09-24T14:30:53.557Z,6.32
2022-09-24T14:33:25.765Z,6.03
2022-09-24T14:35:54.760Z,5.22
2022-09-24T14:38:35.698Z,6.28
2022-09-24T14:41:08.984Z,5.72
2022-09-24T14:43:42.289Z,5.30
2022-09-24T14:46:15.225Z,5.57
2022-09-24T14:48:44.042Z,5.82
2022-09-24T14:51:30.478Z,5.90
2022-09-24T14:54:00.665Z,5.43
2022-09-24T14:56:29.305Z,5.63
2022-09-24T14:58:56.468Z,5.30
2022-09-24T15:01:25.107Z,6.00
2022-09-24T15:03:56.535Z,5.82
2022-09-24T15:06:32.127Z,5.80
2022-09-24T15:09:05.445Z,6.15
2022-09-24T15:11:34.400Z,5.95
2022-09-24T15:14:16.714Z,6.18
2022-09-24T15:16:46.780Z,5.72
2022-09-24T15:19:32.815Z,5.68
2022-09-24T15:22:00.223Z,5.47
2022-09-24T15:24:27.528Z,5.63
2022-09-24T15:27:05.529Z,5.57
2022-09-24T15:29:32.882Z,5.47
2022-09-24T15:32:00.304Z,5.97
2022-09-24T15:34:28.962Z,5.97
2022-09-24T15:36:59.343Z,6.45
2022-09-24T15:39:27.366Z,5.70
2022-09-24T15:41:54.515Z,5.50
2022-09-24T15:44:29.747Z,6.50
2022-09-24T15:47:00.225Z,5.63
2022-09-24T15:49:27.439Z,5.40
2022-09-24T15:52:07.157Z,5.35
2022-09-24T15:54:34.278Z,6.43
2022-09-24T15:57:02.324Z,6.07
2022-09-24T15:59:29.574Z,5.75
2022-09-24T16:01:59.657Z,6.05
2022-09-24T16:04:26.849Z,6.07
2022-09-24T16:06:54.036Z,6.70
2022-09-24T16:09:21.168Z,5.80
2022-09-24T16:11:48.362Z,6.10
2022-09-24T16:14:15.531Z,6.32
2022-09-24T16:16:42.700Z,6.72
2022-09-24T16:19:10.018Z,6.75
2022-09-24T16:21:37.595Z,6.45
2022-09-24T16:24:04.819Z,9.00
2022-09-24T16:26:32.072Z,5.28
2022-09-24T16:28:59.221Z,5.15
2022-09-24T16:31:26.426Z,3.30
2022-09-24T16:33:54.111Z,3.60
2022-09-24T16:36:23.716Z,3.50
2022-09-24T16:38:50.865Z,3.60
2022-09-24T16:41:18.041Z,3.85
2022-09-24T16:43:45.311Z,6.20
2022-09-24T16:46:17.928Z,2.90
2022-09-24T16:48:49.700Z,4.00
2022-09-24T16:51:17.360Z,4.38
2022-09-24T16:53:48.913Z,4.45
2022-09-24T16:56:17.669Z,4.37
2022-09-24T16:58:45.963Z,4.38
2022-09-24T17:01:14.511Z,4.03
2022-09-24T17:03:41.790Z,3.58
2022-09-24T17:06:09.307Z,3.88
2022-09-24T17:08:55.953Z,3.97
2022-09-24T17:11:23.805Z,4.82
2022-09-24T17:13:50.948Z,4.25
2022-09-24T17:16:18.871Z,4.25
2022-09-24T17:18:47.039Z,4.43
2022-09-24T17:21:14.969Z,3.38
2022-09-24T17:23:42.106Z,4.07
2022-09-24T17:26:16.227Z,4.35
2022-09-24T17:28:44.612Z,3.58
2022-09-24T17:31:12.774Z,3.42
2022-09-24T17:33:44.056Z,3.70
2022-09-24T17:36:14.000Z,3.60
2022-09-24T17:38:41.139Z,3.13
2022-09-24T17:41:10.070Z,2.88
2022-09-24T17:43:37.686Z,2.83
2022-09-24T17:46:06.677Z,2.83
2022-09-24T17:48:38.183Z,3.30
2022-09-24T17:51:06.869Z,3.30
2022-09-24T17:53:34.884Z,3.00
2022-09-24T17:56:02.409Z,3.65
2022-09-24T17:58:29.586Z,4.00
2022-09-24T18:00:56.766Z,4.25
2022-09-24T18:03:23.896Z,4.40
2022-09-24T18:05:51.040Z,4.18
2022-09-24T18:08:18.198Z,4.45
2022-09-24T18:10:45.350Z,5.03
2022-09-24T18:13:14.161Z,5.55
2022-09-24T18:15:42.379Z,5.95
2022-09-24T18:18:09.601Z,5.13
2022-09-24T18:20:37.421Z,6.00
2022-09-24T18:23:04.529Z,5.45
2022-09-24T18:25:31.949Z,5.75
2022-09-24T18:28:01.571Z,7.35
2022-09-24T18:30:28.709Z,11.10
2022-09-24T18:32:55.919Z,12.68
2022-09-24T18:35:23.066Z,12.50
2022-09-24T18:37:50.215Z,11.40
2022-09-24T18:40:17.579Z,10.63
2022-09-24T18:42:44.755Z,6.00
2022-09-24T18:45:12.183Z,5.95
2022-09-24T18:47:39.385Z,9.07
2022-09-24T18:50:06.862Z,9.98
2022-09-24T18:52:34.518Z,10.48
2022-09-24T18:55:02.496Z,10.15
2022-09-24T18:57:29.611Z,11.02
2022-09-24T18:59:56.786Z,11.18
2022-09-24T19:02:25.208Z,11.15
2022-09-24T19:04:52.963Z,12.10
2022-09-24T19:07:20.219Z,11.80
2022-09-24T19:09:47.378Z,10.05
2022-09-24T19:12:14.572Z,9.27
2022-09-24T19:14:42.484Z,11.40
2022-09-24T19:17:09.725Z,9.82
2022-09-24T19:19:36.878Z,10.27
2022-09-24T19:22:04.156Z,10.55
2022-09-24T19:24:31.356Z,9.73
2022-09-24T19:26:58.557Z,9.82
2022-09-24T19:29:25.684Z,11.25
2022-09-24T19:31:53.016Z,10.40
2022-09-24T19:34:21.275Z,12.27
2022-09-24T19:36:48.460Z,12.18
2022-09-24T19:39:16.699Z,10.80
2022-09-24T19:41:44.401Z,12.15
2022-09-24T19:44:12.006Z,12.50
2022-09-24T19:46:39.839Z,10.45
2022-09-24T19:49:07.462Z,10.88
2022-09-24T19:51:35.058Z,13.25
2022-09-24T19:54:07.023Z,11.10
2022-09-24T19:56:35.323Z,20.33
2022-09-24T19:59:02.802Z,37.00
2022-09-24T20:01:31.067Z,19.27
2022-09-24T20:03:59.632Z,12.15
2022-09-24T20:06:28.967Z,13.27
2022-09-24T20:08:57.092Z,14.18
2022-09-24T20:11:25.525Z,13.90
2022-09-24T20:13:53.705Z,14.15
2022-09-24T20:16:21.839Z,13.95
2022-09-24T20:18:49.827Z,13.80
2022-09-24T20:21:17.780Z,14.90
2022-09-24T20:23:48.747Z,17.13
2022-09-24T20:26:35.609Z,18.08
2022-09-24T20:29:03.186Z,13.35
2022-09-24T20:31:30.859Z,15.35
2022-09-24T20:33:58.508Z,13.35
2022-09-24T20:36:25.644Z,11.80
2022-09-24T20:38:53.337Z,13.82
2022-09-24T20:41:21.668Z,17.25
2022-09-24T20:43:48.833Z,17.45
2022-09-24T20:46:21.925Z,12.15
2022-09-24T20:48:49.397Z,12.93
2022-09-24T20:51:18.271Z,12.98
2022-09-24T20:53:46.222Z,12.90
2022-09-24T20:56:13.635Z,11.63
2022-09-24T20:58:40.783Z,13.35
2022-09-24T21:01:09.159Z,15.98
2022-09-24T21:03:44.326Z,18.63
2022-09-24T21:06:13.118Z,19.17
2022-09-24T21:08:41.815Z,18.92
2022-09-24T21:11:10.111Z,17.90
2022-09-24T21:13:40.993Z,25.85
2022-09-24T21:16:09.513Z,21.30
2022-09-24T21:18:44.311Z,17.83
2022-09-24T21:21:14.253Z,16.73
2022-09-24T21:23:41.972Z,17.55
2022-09-24T21:26:15.093Z,14.43
2022-09-24T21:28:43.536Z,16.63
2022-09-24T21:31:10.897Z,15.80
2022-09-24T21:33:38.151Z,14.05
2022-09-24T21:36:06.348Z,13.13
2022-09-24T21:38:33.894Z,14.82
2022-09-24T21:41:02.801Z,12.27
2022-09-24T21:43:34.646Z,15.50
2022-09-24T21:46:06.620Z,14.50
2022-09-24T21:48:34.401Z,16.23
2022-09-24T21:51:05.655Z,15.15
2022-09-24T21:53:33.647Z,16.20
2022-09-24T21:56:00.933Z,14.32
2022-09-24T21:58:29.707Z,16.60
2022-09-24T22:01:00.923Z,16.65
2022-09-24T22:03:30.720Z,16.83
2022-09-24T22:06:00.137Z,17.48
2022-09-24T22:08:29.092Z,16.48
2022-09-24T22:11:03.688Z,17.45
2022-09-24T22:13:31.564Z,19.05
2022-09-24T22:15:59.966Z,18.70
2022-09-24T22:18:27.951Z,17.98
2022-09-24T22:20:55.947Z,19.30
2022-09-24T22:23:23.295Z,20.15
2022-09-24T22:25:59.890Z,20.75
2022-09-24T22:28:28.203Z,21.55
2022-09-24T22:30:56.781Z,26.05
2022-09-24T22:33:43.028Z,22.42
2022-09-24T22:36:10.249Z,19.55
2022-09-24T22:38:37.513Z,21.08
2022-09-24T22:41:05.452Z,22.70
2022-09-24T22:43:33.192Z,22.15
2022-09-24T22:46:00.719Z,22.63
2022-09-24T22:48:27.998Z,21.10
2022-09-24T22:50:55.214Z,21.00
2022-09-24T22:53:22.711Z,21.50
2022-09-24T22:55:52.663Z,22.88
2022-09-24T22:58:20.141Z,18.20
2022-09-24T23:00:47.295Z,17.90
2022-09-24T23:03:14.431Z,22.75
2022-09-24T23:05:41.846Z,18.92
2022-09-24T23:08:08.971Z,21.05
2022-09-24T23:10:36.093Z,18.25
2022-09-24T23:13:03.222Z,19.48
2022-09-24T23:15:31.059Z,20.50
2022-09-24T23:17:58.170Z,20.48
2022-09-24T23:20:25.303Z,20.05
2022-09-24T23:22:52.453Z,20.92
2022-09-24T23:25:19.563Z,18.10
2022-09-24T23:27:46.693Z,20.08
2022-09-24T23:30:13.881Z,19.95
2022-09-24T23:32:41.047Z,18.15
2022-09-24T23:35:08.446Z,17.85
2022-09-24T23:37:36.233Z,16.45
2022-09-24T23:40:03.972Z,17.42
2022-09-24T23:42:31.379Z,16.67
2022-09-24T23:44:58.600Z,16.88
2022-09-24T23:47:25.723Z,17.63
2022-09-24T23:49:52.850Z,16.02
2022-09-24T23:52:19.985Z,14.55
2022-09-24T23:54:47.615Z,16.45
2022-09-24T23:57:15.502Z,16.52
2022-09-24T23:59:42.607Z,16.45
